createdAt,value
2023-02-05T10:56:03.791Z,100967.13
2023-02-05T11:01:18.933Z,100968.41
2023-02-05T11:06:25.567Z,100968.66
2023-02-05T11:11:32.202Z,100960.73
2023-02-05T11:16:42.466Z,100962.40
2023-02-05T11:21:47.595Z,100964.82
2023-02-05T11:27:12.453Z,100959.95
2023-02-05T11:32:37.091Z,100960.59
2023-02-05T11:37:41.291Z,100968.61
2023-02-05T11:42:52.521Z,100962.69
2023-02-05T11:47:57.333Z,100959.41
2023-02-05T11:53:13.709Z,100955.79
2023-02-05T11:58:36.193Z,100953.23
2023-02-05T12:03:41.466Z,100950.31
2023-02-05T12:08:55.669Z,100946.55
2023-02-05T12:14:23.009Z,100938.64
2023-02-05T12:19:33.722Z,100942.45
2023-02-05T12:24:49.144Z,100940.79
2023-02-05T12:30:14.440Z,100945.17
2023-02-05T12:35:24.210Z,100944.70
2023-02-05T12:40:55.109Z,100947.30
2023-02-05T12:45:59.329Z,100945.60
2023-02-05T12:51:22.729Z,100940.29
2023-02-05T12:56:53.621Z,100940.94
2023-02-05T13:02:23.595Z,100939.77
2023-02-05T13:09:06.056Z,100938.37
2023-02-05T13:14:38.134Z,100937.05
2023-02-05T13:19:57.225Z,100933.77
2023-02-05T13:25:38.147Z,100929.27
2023-02-05T13:30:47.669Z,100929.13
2023-02-05T13:36:21.048Z,100926.24
2023-02-05T13:41:43.165Z,100925.86
2023-02-05T13:47:05.708Z,100929.32
2023-02-05T13:52:14.755Z,100922.60
2023-02-05T13:58:05.137Z,100922.91
2023-02-05T14:03:10.469Z,100925.00
2023-02-05T14:08:24.765Z,100929.02
2023-02-05T14:13:34.500Z,100932.66
2023-02-05T14:18:41.658Z,100942.73
2023-02-05T14:23:47.772Z,100947.77
2023-02-05T14:28:52.540Z,100950.23
2023-02-05T14:34:28.185Z,100947.91
2023-02-05T14:39:34.968Z,100953.06
2023-02-05T14:44:42.667Z,100957.34
2023-02-05T14:49:50.726Z,100955.67
2023-02-05T14:55:13.907Z,100949.08
2023-02-05T15:00:34.965Z,100949.34
2023-02-05T15:05:44.059Z,100947.52
2023-02-05T15:11:15.180Z,100948.19
2023-02-05T15:16:21.814Z,100951.97
2023-02-05T15:21:49.806Z,100957.95
2023-02-05T15:36:20.201Z,100952.79
2023-02-05T15:41:25.567Z,100959.86
2023-02-05T15:47:24.719Z,100965.73
2023-02-05T16:06:44.249Z,100975.98
2023-02-05T16:47:35.870Z,100980.54
2023-02-05T17:08:55.844Z,101001.56
2023-02-05T17:15:37.520Z,101004.20
2023-02-05T17:39:51.022Z,101023.99
2023-02-05T17:43:41.910Z,101016.56
2023-02-05T17:49:21.838Z,101022.59
2023-02-05T18:03:40.389Z,101028.38
2023-02-05T19:06:15.226Z,101076.89
2023-02-05T19:11:52.205Z,101079.30
2023-02-05T19:17:52.838Z,101077.42
2023-02-05T19:23:50.740Z,101060.48
2023-02-05T19:29:17.942Z,101069.61
2023-02-05T19:34:45.319Z,101075.73
2023-02-05T19:40:54.818Z,101083.40
2023-02-05T20:01:56.272Z,101081.14
2023-02-05T20:07:09.915Z,101075.45
2023-02-05T20:13:26.835Z,101077.46
2023-02-05T20:20:12.659Z,101081.60
2023-02-05T20:26:33.391Z,101092.14
2023-02-05T20:32:49.747Z,101091.40
2023-02-05T21:05:56.640Z,101128.61
2023-02-05T21:12:23.040Z,101133.34
2023-02-05T21:19:16.375Z,101131.72
2023-02-05T21:25:34.002Z,101140.95
2023-02-05T21:31:50.610Z,101140.94
2023-02-05T21:38:50.960Z,101156.64
2023-02-05T21:45:27.353Z,101156.08
2023-02-05T22:05:28.432Z,101183.98
2023-02-05T22:12:04.309Z,101192.02
2023-02-05T22:18:32.508Z,101205.04
2023-02-05T22:33:06.186Z,101211.63
2023-02-05T22:39:48.929Z,101205.84
2023-02-05T23:04:09.986Z,101201.40
2023-02-05T23:09:16.878Z,101208.63
2023-02-05T23:14:58.129Z,101208.75
2023-02-05T23:20:34.100Z,101215.16
2023-02-05T23:26:42.479Z,101218.57
2023-02-05T23:31:46.459Z,101220.30
2023-02-05T23:36:49.965Z,101218.86
2023-02-05T23:41:53.201Z,101225.31
2023-02-05T23:47:31.897Z,101224.88
2023-02-05T23:53:07.571Z,101227.48
2023-02-05T23:58:48.973Z,101239.64
